Time,TemperatureF,DewpointF,PressureIn,WindDirection,WindDirectionDegrees,WindSpeedMPH,WindSpeedGustMPH,Humidity,HourlyPrecipIn,Conditions,Clouds,dailyrainin,SoftwareType,DateUTC
2013-08-23 00:05:00,65.1,51.8,29.47,ENE,68,0.0,0.0,62,0.00,SCT,,0.00,WeatherDisplay:10.37,2013-08-23 07:05:00,
2013-08-23 00:15:00,64.9,52.0,29.47,ENE,68,0.0,0.0,63,0.00,SCT,,0.00,WeatherDisplay:10.37,2013-08-23 07:15:00,
2013-08-23 00:25:00,65.1,52.2,29.47,ENE,68,0.0,0.0,63,0.00,SCT,,0.00,WeatherDisplay:10.37,2013-08-23 07:25:00,
2013-08-23 00:35:00,64.9,56.1,29.48,ENE,68,0.0,0.0,73,0.00,SCT,,0.00,WeatherDisplay:10.37,2013-08-23 07:35:00,
2013-08-23 00:45:00,64.9,52.0,29.47,ESE,105,0.0,0.0,63,0.00,SCT,,0.00,WeatherDisplay:10.37,2013-08-23 07:45:00,
2013-08-23 00:55:00,64.9,52.0,29.48,ESE,118,0.0,0.0,63,0.00,SCT,,0.00,WeatherDisplay:10.37,2013-08-23 07:55:00,
2013-08-23 01:05:00,64.9,52.0,29.48,ENE,75,0.0,0.0,63,0.00,SCT,,0.00,WeatherDisplay:10.37,2013-08-23 08:05:00,
2013-08-23 01:15:00,64.8,54.7,29.48,East,91,0.0,0.0,70,0.00,SCT,,0.00,WeatherDisplay:10.37,2013-08-23 08:15:00,
2013-08-23 01:25:00,64.6,57.2,29.49,East,87,0.0,0.0,77,0.00,FEW,,0.00,WeatherDisplay:10.37,2013-08-23 08:25:00,
2013-08-23 01:35:00,64.2,51.8,29.49,ENE,70,0.0,0.0,64,0.00,FEW,,0.00,WeatherDisplay:10.37,2013-08-23 08:35:00,
2013-08-23 01:45:00,64.2,51.8,29.49,NE,54,0.0,0.0,64,0.00,FEW,,0.00,WeatherDisplay:10.37,2013-08-23 08:45:00,
2013-08-23 01:55:00,64.2,52.2,29.48,East,91,0.0,0.0,65,0.00,FEW,,0.00,WeatherDisplay:10.37,2013-08-23 08:55:00,
2013-08-23 02:05:00,64.0,56.7,29.49,East,83,0.0,0.0,77,0.00,FEW,,0.00,WeatherDisplay:10.37,2013-08-23 09:05:00,
2013-08-23 02:15:00,63.9,51.9,29.48,ESE,112,0.0,0.0,65,0.00,FEW,,0.00,WeatherDisplay:10.37,2013-08-23 09:15:00,
2013-08-23 02:25:00,63.7,51.7,29.48,ESE,105,0.0,0.0,65,0.00,BKN,,0.00,WeatherDisplay:10.37,2013-08-23 09:25:00,
2013-08-23 02:35:00,63.3,56.7,29.48,East,84,0.0,0.0,79,0.00,BKN,,0.00,WeatherDisplay:10.37,2013-08-23 09:35:00,
2013-08-23 02:45:00,63.5,56.2,29.48,East,88,0.0,0.0,77,0.00,BKN,,0.00,WeatherDisplay:10.37,2013-08-23 09:45:00,
2013-08-23 02:55:00,63.3,55.6,29.48,ESE,118,0.0,5.0,76,0.00,BKN,,0.00,WeatherDisplay:10.37,2013-08-23 09:55:00,
2013-08-23 03:05:00,63.3,51.3,29.48,ENE,69,1.0,2.0,65,0.00,BKN,,0.00,WeatherDisplay:10.37,2013-08-23 10:05:00,
2013-08-23 03:15:00,63.2,51.3,29.49,East,82,0.0,0.0,65,0.00,BKN,,0.00,WeatherDisplay:10.37,2013-08-23 10:15:00,
2013-08-23 03:25:00,63.1,59.2,29.49,East,86,0.0,0.0,87,0.00,BKN,,0.00,WeatherDisplay:10.37,2013-08-23 10:25:00,
2013-08-23 03:35:00,63.1,51.2,29.49,ESE,115,0.0,0.0,65,0.00,BKN,,0.00,WeatherDisplay:10.37,2013-08-23 10:35:00,
2013-08-23 03:45:00,63.1,51.6,29.49,East,99,0.0,0.0,66,0.00,BKN,,0.00,WeatherDisplay:10.37,2013-08-23 10:45:00,
2013-08-23 03:55:00,63.1,51.6,29.49,ENE,75,0.0,0.0,66,0.00,BKN,,0.00,WeatherDisplay:10.37,2013-08-23 10:55:00,
2013-08-23 04:05:00,63.0,57.7,29.49,East,98,0.0,3.0,83,0.00,BKN,,0.00,WeatherDisplay:10.37,2013-08-23 11:05:00,
2013-08-23 04:15:00,63.0,51.4,29.49,ESE,114,0.0,0.0,66,0.00,BKN,,0.00,WeatherDisplay:10.37,2013-08-23 11:15:00,
2013-08-23 04:25:00,62.8,51.2,29.49,East,101,0.0,0.0,66,0.00,BKN,,0.00,WeatherDisplay:10.37,2013-08-23 11:25:00,
2013-08-23 04:35:00,62.8,58.2,29.49,ENE,65,0.0,0.0,85,0.00,BKN,,0.00,WeatherDisplay:10.37,2013-08-23 11:35:00,
2013-08-23 04:45:00,62.6,51.5,29.49,East,79,0.0,0.0,67,0.00,BKN,,0.00,WeatherDisplay:10.37,2013-08-23 11:45:00,
2013-08-23 04:55:00,62.6,51.1,29.49,ESE,108,0.0,2.0,66,0.00,BKN,,0.00,WeatherDisplay:10.37,2013-08-23 11:55:00,
2013-08-23 05:05:00,62.6,54.9,29.49,ESE,110,0.0,0.0,76,0.00,BKN,,0.00,WeatherDisplay:10.37,2013-08-23 12:05:00,
2013-08-23 05:15:00,62.5,52.5,29.49,East,80,0.0,2.0,70,0.00,BKN,,0.00,WeatherDisplay:10.37,2013-08-23 12:15:00,
2013-08-23 05:25:00,62.4,50.9,29.49,ESE,102,0.0,0.0,66,0.00,OVC,,0.00,WeatherDisplay:10.37,2013-08-23 12:25:00,
2013-08-23 05:35:00,62.2,51.1,29.50,East,82,0.0,6.0,67,0.00,OVC,,0.00,WeatherDisplay:10.37,2013-08-23 12:35:00,
2013-08-23 05:45:00,62.2,51.5,29.50,ESE,106,0.0,0.0,68,0.00,OVC,,0.00,WeatherDisplay:10.37,2013-08-23 12:45:00,
2013-08-23 05:55:00,62.1,51.4,29.50,NE,52,0.0,1.0,68,0.00,OVC,,0.00,WeatherDisplay:10.37,2013-08-23 12:55:00,
2013-08-23 06:05:00,61.9,51.2,29.49,ENE,65,0.0,0.0,68,0.00,OVC,,0.00,WeatherDisplay:10.37,2013-08-23 13:05:00,
2013-08-23 06:15:00,61.9,53.9,29.50,East,90,2.0,7.0,75,0.00,OVC,,0.00,WeatherDisplay:10.37,2013-08-23 13:15:00,
2013-08-23 06:25:00,61.9,51.6,29.49,East,87,0.0,0.0,69,0.00,OVC,,0.00,WeatherDisplay:10.37,2013-08-23 13:25:00,
2013-08-23 06:35:00,61.9,51.6,29.50,ENE,64,0.0,0.0,69,0.00,OVC,,0.00,WeatherDisplay:10.37,2013-08-23 13:35:00,
2013-08-23 06:45:00,61.9,51.6,29.50,ENE,70,0.0,0.0,69,0.00,OVC,,0.00,WeatherDisplay:10.37,2013-08-23 13:45:00,
2013-08-23 06:55:00,61.9,51.6,29.50,ESE,107,0.0,0.0,69,0.00,OVC,,0.00,WeatherDisplay:10.37,2013-08-23 13:55:00,
2013-08-23 07:05:00,61.9,52.8,29.50,ENE,71,0.0,4.0,72,0.00,OVC,,0.00,WeatherDisplay:10.37,2013-08-23 14:05:00,
2013-08-23 07:15:00,62.0,52.1,29.51,East,86,0.0,8.0,70,0.00,OVC,,0.00,WeatherDisplay:10.37,2013-08-23 14:15:00,
2013-08-23 07:25:00,62.2,53.1,29.50,East,84,0.0,2.0,72,0.00,OVC,,0.00,WeatherDisplay:10.37,2013-08-23 14:25:00,
2013-08-23 07:35:00,62.4,52.5,29.51,ENE,67,3.0,4.0,70,0.00,OVC,,0.00,WeatherDisplay:10.37,2013-08-23 14:35:00,
2013-08-23 07:45:00,62.7,53.9,29.50,ENE,78,1.0,3.0,73,0.00,OVC,,0.00,WeatherDisplay:10.37,2013-08-23 14:45:00,
2013-08-23 07:55:00,63.1,53.2,29.51,ENE,57,0.0,0.0,70,0.00,OVC,,0.00,WeatherDisplay:10.37,2013-08-23 14:55:00,
2013-08-23 08:05:00,63.5,53.5,29.51,East,82,2.0,2.0,70,0.00,OVC,,0.00,WeatherDisplay:10.37,2013-08-23 15:05:00,
2013-08-23 08:15:00,63.7,54.9,29.51,ENE,69,0.0,3.0,73,0.00,OVC,,0.00,WeatherDisplay:10.37,2013-08-23 15:15:00,
2013-08-23 08:25:00,63.9,54.7,29.52,East,91,0.0,0.0,72,0.00,OVC,,0.00,WeatherDisplay:10.37,2013-08-23 15:25:00,
2013-08-23 08:35:00,64.0,54.1,29.52,East,92,0.0,2.0,70,0.00,OVC,,0.00,WeatherDisplay:10.37,2013-08-23 15:35:00,
2013-08-23 08:45:00,64.0,54.1,29.52,SE,146,1.0,3.0,70,0.00,OVC,,0.00,WeatherDisplay:10.37,2013-08-23 15:45:00,
2013-08-23 08:55:00,64.2,54.6,29.52,ESE,109,0.0,0.0,71,0.00,OVC,,0.00,WeatherDisplay:10.37,2013-08-23 15:55:00,
2013-08-23 09:05:00,64.6,54.6,29.52,SE,127,1.0,6.0,70,0.00,OVC,,0.00,WeatherDisplay:10.37,2013-08-23 16:05:00,
2013-08-23 09:15:00,65.4,55.4,29.53,ESE,120,3.0,4.0,70,0.00,OVC,,0.00,WeatherDisplay:10.37,2013-08-23 16:15:00,
2013-08-23 09:25:00,66.7,55.8,29.53,East,91,0.0,4.0,68,0.00,OVC,,0.00,WeatherDisplay:10.37,2013-08-23 16:25:00,
2013-08-23 09:35:00,68.5,57.1,29.53,ENE,74,0.0,6.0,67,0.00,OVC,,0.00,WeatherDisplay:10.37,2013-08-23 16:35:00,
2013-08-23 09:45:00,70.3,57.5,29.53,ESE,102,0.0,2.0,64,0.00,OVC,,0.00,WeatherDisplay:10.37,2013-08-23 16:45:00,
2013-08-23 09:55:00,70.9,59.0,29.53,East,101,7.0,7.0,66,0.00,OVC,,0.00,WeatherDisplay:10.37,2013-08-23 16:55:00,
2013-08-23 10:05:00,72.3,58.1,29.53,ESE,108,0.0,5.0,61,0.00,OVC,,0.00,WeatherDisplay:10.37,2013-08-23 17:05:00,
2013-08-23 10:15:00,73.0,58.3,29.53,SE,144,0.0,8.0,60,0.00,OVC,,0.00,WeatherDisplay:10.37,2013-08-23 17:15:00,
2013-08-23 10:25:00,73.4,58.2,29.53,SSE,161,0.0,0.0,59,0.00,OVC,,0.00,WeatherDisplay:10.37,2013-08-23 17:25:00,
2013-08-23 10:35:00,73.8,66.1,29.54,SE,126,1.0,1.0,77,0.00,OVC,,0.00,WeatherDisplay:10.37,2013-08-23 17:35:00,
2013-08-23 10:45:00,73.6,57.9,29.54,ESE,103,2.0,2.0,58,0.00,OVC,,0.00,WeatherDisplay:10.37,2013-08-23 17:45:00,
2013-08-23 10:55:00,72.9,57.2,29.54,ESE,122,0.0,4.0,58,0.00,OVC,,0.00,WeatherDisplay:10.37,2013-08-23 17:55:00,
2013-08-23 11:05:00,72.7,64.7,29.54,SE,133,0.0,3.0,76,0.00,OVC,,0.00,WeatherDisplay:10.37,2013-08-23 18:05:00,
2013-08-23 11:15:00,71.8,57.2,29.53,SSE,148,0.0,0.0,60,0.00,OVC,,0.00,WeatherDisplay:10.37,2013-08-23 18:15:00,
2013-08-23 11:25:00,72.1,57.9,29.54,South,173,0.0,4.0,61,0.00,BKN,,0.00,WeatherDisplay:10.37,2013-08-23 18:25:00,
2013-08-23 11:35:00,72.5,57.4,29.54,SSE,154,2.0,2.0,59,0.00,BKN,,0.00,WeatherDisplay:10.37,2013-08-23 18:35:00,
2013-08-23 11:45:00,73.0,58.3,29.54,SE,146,1.0,6.0,60,0.00,BKN,,0.00,WeatherDisplay:10.37,2013-08-23 18:45:00,
2013-08-23 11:55:00,73.0,58.3,29.54,SE,130,1.0,1.0,60,0.00,BKN,,0.00,WeatherDisplay:10.37,2013-08-23 18:55:00,
2013-08-23 12:05:00,72.7,57.0,29.54,South,171,5.0,7.0,58,0.00,BKN,,0.00,WeatherDisplay:10.37,2013-08-23 19:05:00,
2013-08-23 12:15:00,73.4,60.5,29.54,SSE,155,0.0,3.0,64,0.00,BKN,,0.00,WeatherDisplay:10.37,2013-08-23 19:15:00,
2013-08-23 12:25:00,73.0,61.8,29.55,SSE,154,0.0,2.0,68,0.00,BKN,,0.00,WeatherDisplay:10.37,2013-08-23 19:25:00,
2013-08-23 12:35:00,72.3,57.2,29.55,South,170,0.0,2.0,59,0.00,BKN,,0.00,WeatherDisplay:10.37,2013-08-23 19:35:00,
2013-08-23 12:45:00,72.1,57.0,29.54,SSW,201,5.0,7.0,59,0.00,BKN,,0.00,WeatherDisplay:10.37,2013-08-23 19:45:00,
2013-08-23 12:55:00,73.2,57.6,29.54,SE,128,7.0,7.0,58,0.00,BKN,,0.00,WeatherDisplay:10.37,2013-08-23 19:55:00,
2013-08-23 13:05:00,74.1,57.4,29.55,SSE,153,3.0,4.0,56,0.00,BKN,,0.00,WeatherDisplay:10.37,2013-08-23 20:05:00,
2013-08-23 13:15:00,74.1,57.4,29.55,SSE,164,0.0,7.0,56,0.00,BKN,,0.00,WeatherDisplay:10.37,2013-08-23 20:15:00,
2013-08-23 13:25:00,74.0,57.3,29.55,SSE,160,0.0,2.0,56,0.00,OVC,,0.00,WeatherDisplay:10.37,2013-08-23 20:25:00,
2013-08-23 13:35:00,73.6,56.9,29.55,South,183,6.0,6.0,56,0.00,OVC,,0.00,WeatherDisplay:10.37,2013-08-23 20:35:00,
2013-08-23 13:45:00,73.1,61.0,29.55,SE,142,2.0,7.0,66,0.00,OVC,,0.00,WeatherDisplay:10.37,2013-08-23 20:45:00,
2013-08-23 13:55:00,74.0,57.3,29.55,SE,145,2.0,2.0,56,0.00,OVC,,0.00,WeatherDisplay:10.37,2013-08-23 20:55:00,
2013-08-23 14:05:00,74.8,57.1,29.55,SSE,161,5.0,5.0,54,0.00,OVC,,0.00,WeatherDisplay:10.37,2013-08-23 21:05:00,
2013-08-23 14:15:00,75.4,60.5,29.55,SSE,160,2.0,6.0,60,0.00,OVC,,0.00,WeatherDisplay:10.37,2013-08-23 21:15:00,
2013-08-23 14:25:00,74.5,60.6,29.55,SE,145,6.0,7.0,62,0.00,BKN,,0.00,WeatherDisplay:10.37,2013-08-23 21:25:00,
2013-08-23 14:35:00,75.4,61.5,29.55,SE,146,7.0,7.0,62,0.00,BKN,,0.00,WeatherDisplay:10.37,2013-08-23 21:35:00,
2013-08-23 14:45:00,76.3,61.8,29.55,SSE,149,0.0,3.0,61,0.00,BKN,,0.00,WeatherDisplay:10.37,2013-08-23 21:45:00,
2013-08-23 14:55:00,76.8,63.3,29.55,SSE,165,9.0,9.0,63,0.00,BKN,,0.00,WeatherDisplay:10.37,2013-08-23 21:55:00,
2013-08-23 15:05:00,76.3,56.8,29.54,South,175,7.0,8.0,51,0.00,BKN,,0.00,WeatherDisplay:10.37,2013-08-23 22:05:00,
2013-08-23 15:15:00,76.3,56.8,29.55,South,184,3.0,8.0,51,0.00,BKN,,0.00,WeatherDisplay:10.37,2013-08-23 22:15:00,
2013-08-23 15:25:00,76.6,57.2,29.55,South,175,5.0,8.0,51,0.00,OVC,,0.00,WeatherDisplay:10.37,2013-08-23 22:25:00,
2013-08-23 15:35:00,76.8,57.9,29.55,SSE,151,1.0,5.0,52,0.00,OVC,,0.00,WeatherDisplay:10.37,2013-08-23 22:35:00,
2013-08-23 15:45:00,77.7,57.6,29.55,South,190,1.0,6.0,50,0.00,OVC,,0.00,WeatherDisplay:10.37,2013-08-23 22:45:00,
2013-08-23 15:55:00,76.8,56.8,29.55,SSE,151,5.0,8.0,50,0.00,OVC,,0.00,WeatherDisplay:10.37,2013-08-23 22:55:00,
2013-08-23 16:05:00,75.7,55.2,29.55,South,179,7.0,7.0,49,0.00,OVC,,0.00,WeatherDisplay:10.37,2013-08-23 23:05:00,
2013-08-23 16:15:00,75.4,56.0,29.55,SSE,162,5.0,7.0,51,0.00,OVC,,0.00,WeatherDisplay:10.37,2013-08-23 23:15:00,
2013-08-23 16:25:00,74.9,56.1,29.55,South,169,6.0,8.0,52,0.00,OVC,,0.00,WeatherDisplay:10.37,2013-08-23 23:25:00,
2013-08-23 16:35:00,73.8,55.0,29.55,SE,146,8.0,8.0,52,0.00,OVC,,0.00,WeatherDisplay:10.37,2013-08-23 23:35:00,
2013-08-23 16:45:00,73.0,55.4,29.55,SSE,165,5.0,8.0,54,0.00,OVC,,0.00,WeatherDisplay:10.37,2013-08-23 23:45:00,
2013-08-23 16:55:00,72.7,54.6,29.55,SSE,164,3.0,9.0,53,0.00,BKN,,0.00,WeatherDisplay:10.37,2013-08-23 23:55:00,
2013-08-23 17:05:00,72.7,57.1,29.54,South,172,0.0,8.0,58,0.00,BKN,,0.00,WeatherDisplay:10.37,2013-08-24 00:05:00,
2013-08-23 17:15:00,72.9,54.7,29.54,South,188,6.0,7.0,53,0.00,BKN,,0.00,WeatherDisplay:10.37,2013-08-24 00:15:00,
2013-08-23 17:25:00,72.2,54.6,29.54,SSE,159,2.0,3.0,54,0.00,OVC,,0.00,WeatherDisplay:10.37,2013-08-24 00:25:00,
2013-08-23 17:35:00,72.0,54.5,29.54,SE,132,0.0,3.0,54,0.00,OVC,,0.00,WeatherDisplay:10.37,2013-08-24 00:35:00,
2013-08-23 17:45:00,72.1,54.6,29.54,SSE,151,5.0,7.0,54,0.00,OVC,,0.00,WeatherDisplay:10.37,2013-08-24 00:45:00,
2013-08-23 17:55:00,72.0,53.9,29.53,SE,141,5.0,7.0,53,0.00,OVC,,0.00,WeatherDisplay:10.37,2013-08-24 00:55:00,
2013-08-23 18:05:00,72.0,54.4,29.53,SE,138,0.0,4.0,54,0.00,OVC,,0.00,WeatherDisplay:10.37,2013-08-24 01:05:00,
2013-08-23 18:15:00,71.8,54.2,29.53,SE,131,2.0,9.0,54,0.00,OVC,,0.00,WeatherDisplay:10.37,2013-08-24 01:15:00,
2013-08-23 18:25:00,71.4,53.9,29.53,SSE,149,2.0,7.0,54,0.00,OVC,,0.00,WeatherDisplay:10.37,2013-08-24 01:25:00,
2013-08-23 18:35:00,71.4,55.4,29.53,SSE,150,0.0,0.0,57,0.00,OVC,,0.00,WeatherDisplay:10.37,2013-08-24 01:35:00,
2013-08-23 18:45:00,70.9,54.9,29.53,SSE,161,1.0,2.0,57,0.00,OVC,,0.00,WeatherDisplay:10.37,2013-08-24 01:45:00,
2013-08-23 18:55:00,70.5,54.1,29.53,SSW,193,0.0,0.0,56,0.00,OVC,,0.00,WeatherDisplay:10.37,2013-08-24 01:55:00,
2013-08-23 19:05:00,70.3,54.3,29.53,SSW,198,0.0,5.0,57,0.00,OVC,,0.00,WeatherDisplay:10.37,2013-08-24 02:05:00,
2013-08-23 19:15:00,69.8,54.8,29.53,SW,217,0.0,6.0,59,0.00,OVC,,0.00,WeatherDisplay:10.37,2013-08-24 02:15:00,
2013-08-23 19:25:00,69.4,53.5,29.53,SW,220,0.0,1.0,57,0.00,OVC,,0.00,WeatherDisplay:10.37,2013-08-24 02:25:00,
2013-08-23 19:35:00,69.1,53.7,29.53,SSW,202,0.0,0.0,58,0.00,OVC,,0.00,WeatherDisplay:10.37,2013-08-24 02:35:00,
2013-08-23 19:45:00,68.9,54.0,29.54,SW,218,3.0,3.0,59,0.00,OVC,,0.00,WeatherDisplay:10.37,2013-08-24 02:45:00,
2013-08-23 19:55:00,68.4,53.5,29.54,SW,217,2.0,6.0,59,0.00,OVC,,0.00,WeatherDisplay:10.37,2013-08-24 02:55:00,
2013-08-23 20:05:00,68.0,53.2,29.54,SW,225,0.0,2.0,59,0.00,OVC,,0.00,WeatherDisplay:10.37,2013-08-24 03:05:00,
2013-08-23 20:15:00,67.6,53.3,29.54,SW,225,0.0,0.0,60,0.00,OVC,,0.00,WeatherDisplay:10.37,2013-08-24 03:15:00,
2013-08-23 20:25:00,67.3,53.4,29.54,SW,225,0.0,0.0,61,0.00,OVC,,0.00,WeatherDisplay:10.37,2013-08-24 03:25:00,
2013-08-23 20:35:00,66.9,53.0,29.54,SW,225,0.0,0.0,61,0.00,OVC,,0.00,WeatherDisplay:10.37,2013-08-24 03:35:00,
2013-08-23 20:45:00,66.7,53.3,29.55,SW,225,0.0,0.0,62,0.00,OVC,,0.00,WeatherDisplay:10.37,2013-08-24 03:45:00,
2013-08-23 20:55:00,66.4,53.0,29.55,SW,225,0.0,0.0,62,0.00,OVC,,0.00,WeatherDisplay:10.37,2013-08-24 03:55:00,
2013-08-23 21:05:00,66.0,52.6,29.55,SW,225,0.0,0.0,62,0.00,OVC,,0.00,WeatherDisplay:10.37,2013-08-24 04:05:00,
2013-08-23 21:15:00,66.0,53.1,29.55,SW,225,0.0,0.0,63,0.00,OVC,,0.00,WeatherDisplay:10.37,2013-08-24 04:15:00,
2013-08-23 21:25:00,65.8,52.9,29.55,SW,225,0.0,0.0,63,0.00,OVC,,0.00,WeatherDisplay:10.37,2013-08-24 04:25:00,
2013-08-23 21:35:00,65.8,52.9,29.55,SW,225,0.0,0.0,63,0.00,OVC,,0.00,WeatherDisplay:10.37,2013-08-24 04:35:00,
2013-08-23 21:45:00,65.8,52.9,29.56,SW,225,0.0,0.0,63,0.00,OVC,,0.00,WeatherDisplay:10.37,2013-08-24 04:45:00,
2013-08-23 21:55:00,66.0,53.5,29.56,SW,225,0.0,0.0,64,0.00,OVC,,0.00,WeatherDisplay:10.37,2013-08-24 04:55:00,
2013-08-23 22:05:00,66.0,53.5,29.56,SSW,207,0.0,0.0,64,0.00,OVC,,0.00,WeatherDisplay:10.37,2013-08-24 05:05:00,
2013-08-23 22:15:00,66.0,53.9,29.56,SSW,202,2.0,2.0,65,0.00,OVC,,0.00,WeatherDisplay:10.37,2013-08-24 05:15:00,
2013-08-23 22:25:00,65.7,62.0,29.56,SW,223,1.0,5.0,88,0.00,OVC,,0.00,WeatherDisplay:10.37,2013-08-24 05:25:00,
2013-08-23 22:45:00,64.2,54.2,29.56,SSW,207,0.0,0.0,70,0.00,OVC,,0.00,WeatherDisplay:10.37,2013-08-24 05:45:00,
2013-08-23 22:55:00,63.7,54.5,29.56,SSW,202,0.0,0.0,72,0.00,OVC,,0.00,WeatherDisplay:10.37,2013-08-24 05:55:00,
2013-08-23 23:05:00,63.5,54.7,29.56,SSW,202,0.0,0.0,73,0.00,OVC,,0.00,WeatherDisplay:10.37,2013-08-24 06:05:00,
2013-08-23 23:15:00,63.1,59.5,29.56,SSW,202,0.0,0.0,88,0.00,OVC,,0.00,WeatherDisplay:10.37,2013-08-24 06:15:00,
2013-08-23 23:25:00,63.1,55.1,29.56,SSW,202,0.0,0.0,75,0.00,-RA,,0.00,WeatherDisplay:10.37,2013-08-24 06:25:00,
2013-08-23 23:35:00,62.9,55.2,29.56,SW,220,0.0,0.0,76,0.00,-RA,,0.00,WeatherDisplay:10.37,2013-08-24 06:35:00,
2013-08-23 23:45:00,62.8,57.9,29.56,SW,225,0.0,0.0,84,0.00,-RA,,0.00,WeatherDisplay:10.37,2013-08-24 06:45:00,
2013-08-23 23:55:00,62.4,55.5,29.56,SW,225,0.0,0.0,78,0.00,-RA,,0.00,WeatherDisplay:10.37,2013-08-24 06:55:00,